sensor_id;sensor_type;location;lat;lon;timestamp;noise_LAeq;noise_LA_min;noise_LA_max;noise_LA01;noise_LA95
67310;Laerm;65444;51.438;5.982;2023-06-10T00:00:04;40.08;31.31;47.57;;
67310;Laerm;65444;51.438;5.982;2023-06-10T00:00:16;43.05;31.03;51.42;;
67310;Laerm;65444;51.438;5.982;2023-06-10T00:00:26;41.58;31.44;50.70;;
67310;Laerm;65444;51.438;5.982;2023-06-10T00:00:37;39.79;30.11;51.09;;
67310;Laerm;65444;51.438;5.982;2023-06-10T00:00:47;41.96;30.04;51.52;;
67310;Laerm;65444;51.438;5.982;2023-06-10T00:00:57;31.37;29.45;35.37;;
67310;Laerm;65444;51.438;5.982;2023-06-10T00:01:09;43.76;29.88;63.19;;
67310;Laerm;65444;51.438;5.982;2023-06-10T00:01:20;43.87;29.51;61.95;;
67310;Laerm;65444;51.438;5.982;2023-06-10T00:01:30;52.00;29.29;67.10;;
67310;Laerm;65444;51.438;5.982;2023-06-10T00:01:41;53.30;29.51;68.57;;
67310;Laerm;65444;51.438;5.982;2023-06-10T00:01:51;53.75;29.68;67.90;;
67310;Laerm;65444;51.438;5.982;2023-06-10T00:02:05;52.55;29.76;66.45;;
67310;Laerm;65444;51.438;5.982;2023-06-10T00:02:16;54.54;30.11;70.61;;
67310;Laerm;65444;51.438;5.982;2023-06-10T00:02:27;55.13;32.02;69.02;;
67310;Laerm;65444;51.438;5.982;2023-06-10T00:02:37;55.54;31.17;70.83;;
67310;Laerm;65444;51.438;5.982;2023-06-10T00:02:48;51.05;29.02;68.85;;
67310;Laerm;65444;51.438;5.982;2023-06-10T00:02:58;30.89;28.84;38.58;;
67310;Laerm;65444;51.438;5.982;2023-06-10T00:03:09;30.73;29.24;32.93;;
67310;Laerm;65444;51.438;5.982;2023-06-10T00:03:20;48.95;29.39;70.05;;
67310;Laerm;65444;51.438;5.982;2023-06-10T00:03:33;31.01;29.45;33.81;;
67310;Laerm;65444;51.438;5.982;2023-06-10T00:03:43;30.81;29.29;34.60;;
67310;Laerm;65444;51.438;5.982;2023-06-10T00:03:54;43.43;29.29;64.01;;
67310;Laerm;65444;51.438;5.982;2023-06-10T00:04:04;30.87;29.25;32.84;;
67310;Laerm;65444;51.438;5.982;2023-06-10T00:04:15;31.24;29.56;33.01;;
67310;Laerm;65444;51.438;5.982;2023-06-10T00:04:27;30.79;29.26;36.02;;
67310;Laerm;65444;51.438;5.982;2023-06-10T00:04:37;30.75;28.75;34.00;;
67310;Laerm;65444;51.438;5.982;2023-06-10T00:04:48;46.45;29.14;68.49;;
67310;Laerm;65444;51.438;5.982;2023-06-10T00:04:58;31.44;29.70;37.02;;
67310;Laerm;65444;51.438;5.982;2023-06-10T00:05:08;33.12;30.94;42.41;;
67310;Laerm;65444;51.438;5.982;2023-06-10T00:05:19;35.05;31.66;41.13;;
67310;Laerm;65444;51.438;5.982;2023-06-10T00:05:31;37.77;35.49;40.83;;
67310;Laerm;65444;51.438;5.982;2023-06-10T00:05:41;40.82;37.45;43.28;;
67310;Laerm;65444;51.438;5.982;2023-06-10T00:05:52;43.69;38.22;51.48;;
67310;Laerm;65444;51.438;5.982;2023-06-10T00:06:02;45.34;36.98;53.89;;
67310;Laerm;65444;51.438;5.982;2023-06-10T00:06:13;42.31;34.38;52.61;;
67310;Laerm;65444;51.438;5.982;2023-06-10T00:06:23;40.70;35.37;45.38;;
67310;Laerm;65444;51.438;5.982;2023-06-10T00:06:34;39.83;34.24;46.50;;
67310;Laerm;65444;51.438;5.982;2023-06-10T00:06:47;38.57;32.96;44.85;;
67310;Laerm;65444;51.438;5.982;2023-06-10T00:06:59;38.46;32.03;45.05;;
67310;Laerm;65444;51.438;5.982;2023-06-10T00:07:10;38.41;30.21;46.73;;
67310;Laerm;65444;51.438;5.982;2023-06-10T00:07:21;38.81;30.09;51.07;;
67310;Laerm;65444;51.438;5.982;2023-06-10T00:07:31;31.54;29.31;34.23;;
67310;Laerm;65444;51.438;5.982;2023-06-10T00:07:41;32.31;29.33;42.87;;
67310;Laerm;65444;51.438;5.982;2023-06-10T00:07:52;32.36;29.61;43.10;;
67310;Laerm;65444;51.438;5.982;2023-06-10T00:08:05;34.13;29.53;42.87;;
67310;Laerm;65444;51.438;5.982;2023-06-10T00:08:18;42.54;30.74;53.50;;
67310;Laerm;65444;51.438;5.982;2023-06-10T00:08:30;37.93;31.02;45.18;;
67310;Laerm;65444;51.438;5.982;2023-06-10T00:08:41;33.65;29.50;44.53;;
67310;Laerm;65444;51.438;5.982;2023-06-10T00:08:51;31.83;28.78;40.94;;
67310;Laerm;65444;51.438;5.982;2023-06-10T00:09:04;31.38;29.37;39.34;;
67310;Laerm;65444;51.438;5.982;2023-06-10T00:09:15;30.85;29.53;33.15;;
67310;Laerm;65444;51.438;5.982;2023-06-10T00:09:25;31.33;29.36;33.60;;
67310;Laerm;65444;51.438;5.982;2023-06-10T00:09:39;31.74;29.76;33.66;;
67310;Laerm;65444;51.438;5.982;2023-06-10T00:09:50;31.47;28.79;34.53;;
67310;Laerm;65444;51.438;5.982;2023-06-10T00:10:01;31.23;29.46;34.21;;
67310;Laerm;65444;51.438;5.982;2023-06-10T00:10:16;31.11;29.02;33.39;;
67310;Laerm;65444;51.438;5.982;2023-06-10T00:10:26;30.81;29.28;32.79;;
67310;Laerm;65444;51.438;5.982;2023-06-10T00:10:37;31.39;29.11;38.66;;
67310;Laerm;65444;51.438;5.982;2023-06-10T00:10:48;31.04;29.10;36.15;;
67310;Laerm;65444;51.438;5.982;2023-06-10T00:10:58;33.17;29.03;46.03;;
67310;Laerm;65444;51.438;5.982;2023-06-10T00:11:08;30.93;29.09;35.00;;
67310;Laerm;65444;51.438;5.982;2023-06-10T00:11:20;31.00;28.78;40.14;;
67310;Laerm;65444;51.438;5.982;2023-06-10T00:11:34;37.51;28.90;54.35;;
67310;Laerm;65444;51.438;5.982;2023-06-10T00:11:47;31.67;28.75;44.61;;
67310;Laerm;65444;51.438;5.982;2023-06-10T00:11:57;40.83;28.80;51.65;;
67310;Laerm;65444;51.438;5.982;2023-06-10T00:12:10;44.62;29.66;53.89;;
67310;Laerm;65444;51.438;5.982;2023-06-10T00:12:20;41.91;29.42;52.79;;
67310;Laerm;65444;51.438;5.982;2023-06-10T00:12:30;31.11;29.19;36.29;;
67310;Laerm;65444;51.438;5.982;2023-06-10T00:12:41;31.87;28.67;42.01;;
67310;Laerm;65444;51.438;5.982;2023-06-10T00:12:52;38.89;29.21;50.20;;
67310;Laerm;65444;51.438;5.982;2023-06-10T00:13:03;31.42;29.43;41.48;;
67310;Laerm;65444;51.438;5.982;2023-06-10T00:13:14;31.57;29.46;43.04;;
67310;Laerm;65444;51.438;5.982;2023-06-10T00:13:24;30.86;28.97;39.98;;
67310;Laerm;65444;51.438;5.982;2023-06-10T00:13:35;30.77;28.47;36.44;;
67310;Laerm;65444;51.438;5.982;2023-06-10T00:13:45;30.65;28.69;37.66;;
67310;Laerm;65444;51.438;5.982;2023-06-10T00:13:56;36.83;28.70;54.80;;
67310;Laerm;65444;51.438;5.982;2023-06-10T00:14:06;30.75;28.85;43.50;;
67310;Laerm;65444;51.438;5.982;2023-06-10T00:14:16;31.02;28.51;38.73;;
67310;Laerm;65444;51.438;5.982;2023-06-10T00:14:27;38.36;28.87;47.73;;
67310;Laerm;65444;51.438;5.982;2023-06-10T00:14:38;35.66;28.52;48.05;;
67310;Laerm;65444;51.438;5.982;2023-06-10T00:14:49;30.50;28.72;35.08;;
67310;Laerm;65444;51.438;5.982;2023-06-10T00:15:01;30.88;29.02;39.79;;
67310;Laerm;65444;51.438;5.982;2023-06-10T00:15:12;36.63;29.11;48.64;;
67310;Laerm;65444;51.438;5.982;2023-06-10T00:15:22;30.96;29.26;36.97;;
67310;Laerm;65444;51.438;5.982;2023-06-10T00:15:32;31.42;29.25;38.57;;
67310;Laerm;65444;51.438;5.982;2023-06-10T00:15:43;31.71;29.24;39.85;;
67310;Laerm;65444;51.438;5.982;2023-06-10T00:15:53;43.69;29.52;52.65;;
67310;Laerm;65444;51.438;5.982;2023-06-10T00:16:03;31.36;29.82;35.65;;
67310;Laerm;65444;51.438;5.982;2023-06-10T00:16:14;31.69;30.12;34.26;;
67310;Laerm;65444;51.438;5.982;2023-06-10T00:16:24;30.64;29.17;32.91;;
67310;Laerm;65444;51.438;5.982;2023-06-10T00:16:35;30.44;28.70;36.32;;
67310;Laerm;65444;51.438;5.982;2023-06-10T00:16:46;30.62;28.68;34.65;;
67310;Laerm;65444;51.438;5.982;2023-06-10T00:16:56;30.43;29.03;36.33;;
67310;Laerm;65444;51.438;5.982;2023-06-10T00:17:07;31.00;28.87;38.01;;
67310;Laerm;65444;51.438;5.982;2023-06-10T00:17:19;30.81;29.40;32.28;;
67310;Laerm;65444;51.438;5.982;2023-06-10T00:17:29;30.87;29.07;38.41;;
67310;Laerm;65444;51.438;5.982;2023-06-10T00:17:39;30.44;28.74;32.80;;
67310;Laerm;65444;51.438;5.982;2023-06-10T00:17:51;30.40;29.20;31.93;;
67310;Laerm;65444;51.438;5.982;2023-06-10T00:18:03;35.90;29.42;51.26;;
67310;Laerm;65444;51.438;5.982;2023-06-10T00:18:13;41.54;29.39;53.17;;
67310;Laerm;65444;51.438;5.982;2023-06-10T00:18:24;30.66;28.92;34.41;;
67310;Laerm;65444;51.438;5.982;2023-06-10T00:18:36;33.61;29.20;44.65;;
67310;Laerm;65444;51.438;5.982;2023-06-10T00:18:48;37.83;29.10;48.60;;
67310;Laerm;65444;51.438;5.982;2023-06-10T00:19:01;39.67;30.02;47.54;;
67310;Laerm;65444;51.438;5.982;2023-06-10T00:19:13;41.92;29.82;54.17;;
67310;Laerm;65444;51.438;5.982;2023-06-10T00:19:25;32.85;29.68;43.99;;
67310;Laerm;65444;51.438;5.982;2023-06-10T00:19:36;41.00;32.57;51.72;;
67310;Laerm;65444;51.438;5.982;2023-06-10T00:19:46;45.10;32.97;54.84;;
67310;Laerm;65444;51.438;5.982;2023-06-10T00:19:57;44.89;39.67;53.67;;
67310;Laerm;65444;51.438;5.982;2023-06-10T00:20:08;45.09;40.44;53.45;;
67310;Laerm;65444;51.438;5.982;2023-06-10T00:20:21;41.38;35.14;49.30;;
67310;Laerm;65444;51.438;5.982;2023-06-10T00:20:33;40.59;35.35;47.38;;
67310;Laerm;65444;51.438;5.982;2023-06-10T00:20:48;38.18;34.80;47.06;;
67310;Laerm;65444;51.438;5.982;2023-06-10T00:21:03;37.78;32.27;52.98;;
67310;Laerm;65444;51.438;5.982;2023-06-10T00:21:15;43.12;31.55;53.86;;
67310;Laerm;65444;51.438;5.982;2023-06-10T00:21:25;32.70;29.54;35.53;;
67310;Laerm;65444;51.438;5.982;2023-06-10T00:21:36;30.88;29.14;33.77;;
67310;Laerm;65444;51.438;5.982;2023-06-10T00:21:50;30.60;28.79;36.79;;
67310;Laerm;65444;51.438;5.982;2023-06-10T00:22:01;32.27;28.74;49.43;;
67310;Laerm;65444;51.438;5.982;2023-06-10T00:22:11;31.77;28.84;40.74;;
67310;Laerm;65444;51.438;5.982;2023-06-10T00:22:22;31.56;28.63;35.19;;
67310;Laerm;65444;51.438;5.982;2023-06-10T00:22:32;31.13;29.07;38.72;;
67310;Laerm;65444;51.438;5.982;2023-06-10T00:22:42;31.19;29.69;32.52;;
67310;Laerm;65444;51.438;5.982;2023-06-10T00:22:56;30.83;29.36;37.95;;
67310;Laerm;65444;51.438;5.982;2023-06-10T00:23:07;30.47;28.93;38.20;;
67310;Laerm;65444;51.438;5.982;2023-06-10T00:23:18;30.21;28.60;37.79;;
67310;Laerm;65444;51.438;5.982;2023-06-10T00:23:29;31.18;28.47;44.02;;
67310;Laerm;65444;51.438;5.982;2023-06-10T00:23:41;30.77;28.26;42.69;;
67310;Laerm;65444;51.438;5.982;2023-06-10T00:23:51;30.54;28.80;34.76;;
67310;Laerm;65444;51.438;5.982;2023-06-10T00:24:03;33.37;29.00;52.82;;
67310;Laerm;65444;51.438;5.982;2023-06-10T00:24:13;32.32;29.68;44.26;;
67310;Laerm;65444;51.438;5.982;2023-06-10T00:24:24;34.63;30.21;48.91;;
67310;Laerm;65444;51.438;5.982;2023-06-10T00:24:34;34.09;30.04;49.06;;
67310;Laerm;65444;51.438;5.982;2023-06-10T00:24:45;45.79;32.74;55.88;;
67310;Laerm;65444;51.438;5.982;2023-06-10T00:24:55;33.53;30.74;37.66;;
67310;Laerm;65444;51.438;5.982;2023-06-10T00:25:09;33.06;30.51;39.39;;
67310;Laerm;65444;51.438;5.982;2023-06-10T00:25:20;41.84;30.51;54.76;;
67310;Laerm;65444;51.438;5.982;2023-06-10T00:25:30;42.90;29.60;56.11;;
67310;Laerm;65444;51.438;5.982;2023-06-10T00:25:41;32.64;29.53;37.05;;
67310;Laerm;65444;51.438;5.982;2023-06-10T00:25:51;32.70;30.11;37.36;;
67310;Laerm;65444;51.438;5.982;2023-06-10T00:26:03;33.23;30.16;38.35;;
67310;Laerm;65444;51.438;5.982;2023-06-10T00:26:14;36.19;31.21;49.59;;
67310;Laerm;65444;51.438;5.982;2023-06-10T00:26:25;44.90;32.03;55.53;;
67310;Laerm;65444;51.438;5.982;2023-06-10T00:26:36;35.82;31.80;45.53;;
67310;Laerm;65444;51.438;5.982;2023-06-10T00:26:46;34.53;30.50;38.16;;
67310;Laerm;65444;51.438;5.982;2023-06-10T00:26:57;34.78;31.72;40.57;;
67310;Laerm;65444;51.438;5.982;2023-06-10T00:27:07;34.46;31.51;41.19;;
67310;Laerm;65444;51.438;5.982;2023-06-10T00:27:17;36.51;31.73;48.47;;
67310;Laerm;65444;51.438;5.982;2023-06-10T00:27:28;33.75;30.52;39.69;;
67310;Laerm;65444;51.438;5.982;2023-06-10T00:27:42;33.18;30.02;35.97;;
67310;Laerm;65444;51.438;5.982;2023-06-10T00:27:53;33.14;30.55;37.54;;
67310;Laerm;65444;51.438;5.982;2023-06-10T00:28:03;32.57;29.65;36.73;;
67310;Laerm;65444;51.438;5.982;2023-06-10T00:28:13;31.27;29.34;37.56;;
67310;Laerm;65444;51.438;5.982;2023-06-10T00:28:24;31.56;29.25;40.32;;
67310;Laerm;65444;51.438;5.982;2023-06-10T00:28:34;31.26;29.06;42.37;;
67310;Laerm;65444;51.438;5.982;2023-06-10T00:28:44;30.15;28.78;32.05;;
67310;Laerm;65444;51.438;5.982;2023-06-10T00:28:55;29.96;28.62;31.56;;
67310;Laerm;65444;51.438;5.982;2023-06-10T00:29:05;30.02;28.78;31.46;;
67310;Laerm;65444;51.438;5.982;2023-06-10T00:29:16;29.99;28.64;31.97;;
67310;Laerm;65444;51.438;5.982;2023-06-10T00:29:26;29.85;28.41;31.41;;
67310;Laerm;65444;51.438;5.982;2023-06-10T00:29:36;29.99;28.74;31.75;;
67310;Laerm;65444;51.438;5.982;2023-06-10T00:29:47;30.10;28.45;31.72;;
67310;Laerm;65444;51.438;5.982;2023-06-10T00:29:57;30.31;28.93;31.65;;
67310;Laerm;65444;51.438;5.982;2023-06-10T00:30:09;30.25;28.96;31.81;;
67310;Laerm;65444;51.438;5.982;2023-06-10T00:30:20;30.16;28.71;32.59;;
67310;Laerm;65444;51.438;5.982;2023-06-10T00:30:31;30.09;28.64;31.64;;
67310;Laerm;65444;51.438;5.982;2023-06-10T00:30:41;30.05;28.68;32.98;;
67310;Laerm;65444;51.438;5.982;2023-06-10T00:30:52;31.20;28.69;42.98;;
67310;Laerm;65444;51.438;5.982;2023-06-10T00:31:02;32.43;28.92;45.15;;
67310;Laerm;65444;51.438;5.982;2023-06-10T00:31:14;31.98;28.86;40.94;;
67310;Laerm;65444;51.438;5.982;2023-06-10T00:31:25;30.00;28.64;33.90;;
67310;Laerm;65444;51.438;5.982;2023-06-10T00:31:38;30.17;28.72;39.24;;
67310;Laerm;65444;51.438;5.982;2023-06-10T00:31:48;30.83;28.93;41.27;;
67310;Laerm;65444;51.438;5.982;2023-06-10T00:31:59;29.95;28.45;31.66;;
67310;Laerm;65444;51.438;5.982;2023-06-10T00:32:09;30.27;28.43;40.93;;
67310;Laerm;65444;51.438;5.982;2023-06-10T00:32:20;30.79;28.45;44.95;;
67310;Laerm;65444;51.438;5.982;2023-06-10T00:32:30;30.00;28.86;31.08;;
67310;Laerm;65444;51.438;5.982;2023-06-10T00:32:41;30.11;28.81;31.61;;
67310;Laerm;65444;51.438;5.982;2023-06-10T00:32:51;30.08;28.88;31.63;;
67310;Laerm;65444;51.438;5.982;2023-06-10T00:33:01;30.75;28.76;42.37;;
67310;Laerm;65444;51.438;5.982;2023-06-10T00:33:12;39.61;29.05;50.18;;
67310;Laerm;65444;51.438;5.982;2023-06-10T00:33:22;43.62;29.35;52.23;;
67310;Laerm;65444;51.438;5.982;2023-06-10T00:33:32;41.03;28.94;52.95;;
67310;Laerm;65444;51.438;5.982;2023-06-10T00:33:43;44.96;32.53;53.08;;
67310;Laerm;65444;51.438;5.982;2023-06-10T00:33:53;43.92;29.78;52.57;;
67310;Laerm;65444;51.438;5.982;2023-06-10T00:34:03;39.77;29.29;50.28;;
67310;Laerm;65444;51.438;5.982;2023-06-10T00:34:14;44.24;30.04;51.79;;
67310;Laerm;65444;51.438;5.982;2023-06-10T00:34:24;45.35;32.25;52.16;;
67310;Laerm;65444;51.438;5.982;2023-06-10T00:34:35;41.20;30.40;48.38;;
67310;Laerm;65444;51.438;5.982;2023-06-10T00:34:46;37.41;31.19;47.90;;
67310;Laerm;65444;51.438;5.982;2023-06-10T00:34:56;40.22;32.23;50.92;;
67310;Laerm;65444;51.438;5.982;2023-06-10T00:35:06;36.43;32.29;46.31;;
67310;Laerm;65444;51.438;5.982;2023-06-10T00:35:17;36.47;32.16;43.33;;
67310;Laerm;65444;51.438;5.982;2023-06-10T00:35:27;41.63;33.52;52.74;;
67310;Laerm;65444;51.438;5.982;2023-06-10T00:35:38;45.45;33.28;53.05;;
67310;Laerm;65444;51.438;5.982;2023-06-10T00:35:48;45.22;31.83;52.79;;
67310;Laerm;65444;51.438;5.982;2023-06-10T00:35:58;43.39;29.89;50.71;;
67310;Laerm;65444;51.438;5.982;2023-06-10T00:36:09;43.47;30.73;50.77;;
67310;Laerm;65444;51.438;5.982;2023-06-10T00:36:20;36.18;29.37;48.24;;
67310;Laerm;65444;51.438;5.982;2023-06-10T00:36:31;30.76;29.18;33.64;;
67310;Laerm;65444;51.438;5.982;2023-06-10T00:36:41;31.41;28.93;38.38;;
67310;Laerm;65444;51.438;5.982;2023-06-10T00:36:53;36.53;28.77;43.25;;
67310;Laerm;65444;51.438;5.982;2023-06-10T00:37:03;41.74;29.88;50.36;;
67310;Laerm;65444;51.438;5.982;2023-06-10T00:37:14;44.46;29.72;52.40;;
67310;Laerm;65444;51.438;5.982;2023-06-10T00:37:24;41.46;29.03;50.95;;
67310;Laerm;65444;51.438;5.982;2023-06-10T00:37:34;30.88;28.77;37.90;;
67310;Laerm;65444;51.438;5.982;2023-06-10T00:37:46;35.75;28.88;42.15;;
67310;Laerm;65444;51.438;5.982;2023-06-10T00:37:56;38.86;30.07;46.78;;
67310;Laerm;65444;51.438;5.982;2023-06-10T00:38:06;42.07;29.13;50.68;;
67310;Laerm;65444;51.438;5.982;2023-06-10T00:38:17;44.73;29.31;51.66;;
67310;Laerm;65444;51.438;5.982;2023-06-10T00:38:27;41.66;29.11;51.07;;
67310;Laerm;65444;51.438;5.982;2023-06-10T00:38:37;43.53;29.06;51.88;;
67310;Laerm;65444;51.438;5.982;2023-06-10T00:38:48;42.46;31.01;52.06;;
67310;Laerm;65444;51.438;5.982;2023-06-10T00:38:58;41.45;29.36;52.51;;
67310;Laerm;65444;51.438;5.982;2023-06-10T00:39:11;34.20;29.24;45.46;;
67310;Laerm;65444;51.438;5.982;2023-06-10T00:39:22;31.28;28.07;37.09;;
67310;Laerm;65444;51.438;5.982;2023-06-10T00:39:32;33.12;28.93;42.95;;
67310;Laerm;65444;51.438;5.982;2023-06-10T00:39:42;41.84;29.36;51.42;;
67310;Laerm;65444;51.438;5.982;2023-06-10T00:39:53;43.13;29.33;51.93;;
67310;Laerm;65444;51.438;5.982;2023-06-10T00:40:03;42.00;28.82;51.25;;
67310;Laerm;65444;51.438;5.982;2023-06-10T00:40:14;44.40;30.14;54.65;;
67310;Laerm;65444;51.438;5.982;2023-06-10T00:40:24;41.82;29.90;51.34;;
67310;Laerm;65444;51.438;5.982;2023-06-10T00:40:41;38.13;29.71;52.88;;
67310;Laerm;65444;51.438;5.982;2023-06-10T00:40:51;33.22;29.37;45.02;;
67310;Laerm;65444;51.438;5.982;2023-06-10T00:41:01;30.68;29.18;33.98;;
67310;Laerm;65444;51.438;5.982;2023-06-10T00:41:12;31.29;29.36;42.71;;
67310;Laerm;65444;51.438;5.982;2023-06-10T00:41:22;36.95;29.19;55.75;;
67310;Laerm;65444;51.438;5.982;2023-06-10T00:41:33;34.00;29.18;43.81;;
67310;Laerm;65444;51.438;5.982;2023-06-10T00:41:44;30.63;29.14;32.48;;
67310;Laerm;65444;51.438;5.982;2023-06-10T00:41:54;30.39;29.08;31.85;;
67310;Laerm;65444;51.438;5.982;2023-06-10T00:42:05;30.47;29.19;32.14;;
67310;Laerm;65444;51.438;5.982;2023-06-10T00:42:17;30.59;28.98;36.52;;
67310;Laerm;65444;51.438;5.982;2023-06-10T00:42:27;31.68;28.93;39.69;;
67310;Laerm;65444;51.438;5.982;2023-06-10T00:42:37;39.98;29.61;52.08;;
67310;Laerm;65444;51.438;5.982;2023-06-10T00:42:48;43.06;30.01;53.07;;
67310;Laerm;65444;51.438;5.982;2023-06-10T00:42:58;41.00;29.05;52.15;;
67310;Laerm;65444;51.438;5.982;2023-06-10T00:43:09;30.41;29.01;34.79;;
67310;Laerm;65444;51.438;5.982;2023-06-10T00:43:19;30.33;28.56;32.62;;
67310;Laerm;65444;51.438;5.982;2023-06-10T00:43:29;30.38;28.88;33.54;;
67310;Laerm;65444;51.438;5.982;2023-06-10T00:43:40;35.35;29.93;43.90;;
67310;Laerm;65444;51.438;5.982;2023-06-10T00:43:50;38.05;30.40;44.70;;
67310;Laerm;65444;51.438;5.982;2023-06-10T00:44:01;43.69;30.29;52.70;;
67310;Laerm;65444;51.438;5.982;2023-06-10T00:44:11;45.44;30.67;53.49;;
67310;Laerm;65444;51.438;5.982;2023-06-10T00:44:21;35.60;29.20;45.23;;
67310;Laerm;65444;51.438;5.982;2023-06-10T00:44:32;36.95;29.42;46.91;;
67310;Laerm;65444;51.438;5.982;2023-06-10T00:44:42;37.76;29.50;47.16;;
67310;Laerm;65444;51.438;5.982;2023-06-10T00:44:53;40.82;29.76;50.47;;
67310;Laerm;65444;51.438;5.982;2023-06-10T00:45:05;42.73;29.29;52.09;;
67310;Laerm;65444;51.438;5.982;2023-06-10T00:45:15;38.91;29.30;50.93;;
67310;Laerm;65444;51.438;5.982;2023-06-10T00:45:26;42.68;29.03;51.44;;
67310;Laerm;65444;51.438;5.982;2023-06-10T00:45:36;42.29;29.20;51.04;;
67310;Laerm;65444;51.438;5.982;2023-06-10T00:45:47;39.01;28.76;50.94;;
67310;Laerm;65444;51.438;5.982;2023-06-10T00:45:57;42.42;28.67;52.31;;
67310;Laerm;65444;51.438;5.982;2023-06-10T00:46:08;30.01;28.82;35.13;;
67310;Laerm;65444;51.438;5.982;2023-06-10T00:46:18;30.14;29.05;31.36;;
67310;Laerm;65444;51.438;5.982;2023-06-10T00:46:28;30.33;28.84;31.59;;
67310;Laerm;65444;51.438;5.982;2023-06-10T00:46:42;30.26;28.60;31.95;;
67310;Laerm;65444;51.438;5.982;2023-06-10T00:46:53;31.06;29.14;36.94;;
67310;Laerm;65444;51.438;5.982;2023-06-10T00:47:05;30.68;28.58;40.80;;
67310;Laerm;65444;51.438;5.982;2023-06-10T00:47:16;34.38;28.84;42.08;;
67310;Laerm;65444;51.438;5.982;2023-06-10T00:47:27;36.09;28.68;44.03;;
67310;Laerm;65444;51.438;5.982;2023-06-10T00:47:38;33.81;28.91;42.24;;
67310;Laerm;65444;51.438;5.982;2023-06-10T00:47:49;35.60;29.13;41.61;;
67310;Laerm;65444;51.438;5.982;2023-06-10T00:47:59;40.20;29.99;47.95;;
67310;Laerm;65444;51.438;5.982;2023-06-10T00:48:10;43.38;29.45;54.40;;
67310;Laerm;65444;51.438;5.982;2023-06-10T00:48:20;36.49;29.41;45.86;;
67310;Laerm;65444;51.438;5.982;2023-06-10T00:48:31;39.16;29.80;48.22;;
67310;Laerm;65444;51.438;5.982;2023-06-10T00:48:42;44.46;29.99;53.91;;
67310;Laerm;65444;51.438;5.982;2023-06-10T00:48:53;45.66;29.03;54.79;;
67310;Laerm;65444;51.438;5.982;2023-06-10T00:49:04;45.67;29.55;54.85;;
67310;Laerm;65444;51.438;5.982;2023-06-10T00:49:14;41.17;29.23;54.41;;
67310;Laerm;65444;51.438;5.982;2023-06-10T00:49:25;33.32;29.01;45.50;;
67310;Laerm;65444;51.438;5.982;2023-06-10T00:49:36;35.06;28.63;42.84;;
67310;Laerm;65444;51.438;5.982;2023-06-10T00:49:47;40.45;29.50;47.74;;
67310;Laerm;65444;51.438;5.982;2023-06-10T00:49:58;44.71;29.46;53.26;;
67310;Laerm;65444;51.438;5.982;2023-06-10T00:50:08;46.20;29.36;54.99;;
67310;Laerm;65444;51.438;5.982;2023-06-10T00:50:19;41.48;29.23;53.76;;
67310;Laerm;65444;51.438;5.982;2023-06-10T00:50:29;37.15;29.33;47.37;;
67310;Laerm;65444;51.438;5.982;2023-06-10T00:50:41;39.01;30.17;47.04;;
67310;Laerm;65444;51.438;5.982;2023-06-10T00:50:51;39.34;29.82;47.31;;
67310;Laerm;65444;51.438;5.982;2023-06-10T00:51:03;42.95;31.45;52.26;;
67310;Laerm;65444;51.438;5.982;2023-06-10T00:51:15;43.82;29.10;53.03;;
67310;Laerm;65444;51.438;5.982;2023-06-10T00:51:26;37.40;29.16;44.97;;
67310;Laerm;65444;51.438;5.982;2023-06-10T00:51:37;43.26;32.16;51.20;;
67310;Laerm;65444;51.438;5.982;2023-06-10T00:51:47;44.73;30.66;53.76;;
67310;Laerm;65444;51.438;5.982;2023-06-10T00:51:58;38.07;29.08;43.93;;
67310;Laerm;65444;51.438;5.982;2023-06-10T00:52:08;34.01;29.18;44.78;;
67310;Laerm;65444;51.438;5.982;2023-06-10T00:52:20;31.87;29.26;41.69;;
67310;Laerm;65444;51.438;5.982;2023-06-10T00:52:32;37.60;29.48;48.33;;
67310;Laerm;65444;51.438;5.982;2023-06-10T00:52:43;44.26;29.83;52.03;;
67310;Laerm;65444;51.438;5.982;2023-06-10T00:52:56;43.82;29.43;51.80;;
67310;Laerm;65444;51.438;5.982;2023-06-10T00:53:07;40.12;29.35;50.09;;
67310;Laerm;65444;51.438;5.982;2023-06-10T00:53:18;39.99;29.66;49.70;;
67310;Laerm;65444;51.438;5.982;2023-06-10T00:53:29;44.29;29.76;52.10;;
67310;Laerm;65444;51.438;5.982;2023-06-10T00:53:40;35.25;29.70;43.86;;
67310;Laerm;65444;51.438;5.982;2023-06-10T00:53:51;34.08;30.05;40.97;;
67310;Laerm;65444;51.438;5.982;2023-06-10T00:54:02;34.06;29.72;44.12;;
67310;Laerm;65444;51.438;5.982;2023-06-10T00:54:13;39.22;30.19;52.24;;
67310;Laerm;65444;51.438;5.982;2023-06-10T00:54:23;44.37;31.00;53.34;;
67310;Laerm;65444;51.438;5.982;2023-06-10T00:54:34;44.30;30.27;52.83;;
67310;Laerm;65444;51.438;5.982;2023-06-10T00:54:44;46.26;30.88;53.97;;
67310;Laerm;65444;51.438;5.982;2023-06-10T00:54:55;47.08;29.67;54.88;;
67310;Laerm;65444;51.438;5.982;2023-06-10T00:55:06;41.38;29.42;52.02;;
67310;Laerm;65444;51.438;5.982;2023-06-10T00:55:17;42.90;29.76;52.96;;
67310;Laerm;65444;51.438;5.982;2023-06-10T00:55:28;43.27;30.38;53.56;;
67310;Laerm;65444;51.438;5.982;2023-06-10T00:55:38;44.69;29.74;53.23;;
67310;Laerm;65444;51.438;5.982;2023-06-10T00:55:50;43.70;28.84;53.48;;
67310;Laerm;65444;51.438;5.982;2023-06-10T00:56:00;41.43;28.57;54.43;;
67310;Laerm;65444;51.438;5.982;2023-06-10T00:56:11;31.74;28.74;38.11;;
67310;Laerm;65444;51.438;5.982;2023-06-10T00:56:22;39.25;29.48;50.11;;
67310;Laerm;65444;51.438;5.982;2023-06-10T00:56:32;43.27;29.15;54.10;;
67310;Laerm;65444;51.438;5.982;2023-06-10T00:56:44;41.81;29.12;51.40;;
67310;Laerm;65444;51.438;5.982;2023-06-10T00:56:55;41.58;29.19;50.89;;
67310;Laerm;65444;51.438;5.982;2023-06-10T00:57:06;42.26;30.78;52.77;;
67310;Laerm;65444;51.438;5.982;2023-06-10T00:57:17;47.27;29.85;56.14;;
67310;Laerm;65444;51.438;5.982;2023-06-10T00:57:27;44.68;31.01;53.57;;
67310;Laerm;65444;51.438;5.982;2023-06-10T00:57:39;44.64;31.11;53.50;;
67310;Laerm;65444;51.438;5.982;2023-06-10T00:57:49;46.27;31.85;54.76;;
67310;Laerm;65444;51.438;5.982;2023-06-10T00:58:01;45.01;36.00;54.36;;
67310;Laerm;65444;51.438;5.982;2023-06-10T00:58:12;44.24;40.01;52.80;;
67310;Laerm;65444;51.438;5.982;2023-06-10T00:58:23;48.11;40.95;54.71;;
67310;Laerm;65444;51.438;5.982;2023-06-10T00:58:34;46.89;39.48;52.73;;
67310;Laerm;65444;51.438;5.982;2023-06-10T00:58:45;44.11;37.58;53.31;;
67310;Laerm;65444;51.438;5.982;2023-06-10T00:58:55;42.26;38.85;49.85;;
67310;Laerm;65444;51.438;5.982;2023-06-10T00:59:06;46.43;37.35;55.56;;
67310;Laerm;65444;51.438;5.982;2023-06-10T00:59:16;44.75;34.53;51.91;;
67310;Laerm;65444;51.438;5.982;2023-06-10T00:59:28;43.11;31.04;52.62;;
67310;Laerm;65444;51.438;5.982;2023-06-10T00:59:39;39.26;30.68;47.21;;
67310;Laerm;65444;51.438;5.982;2023-06-10T00:59:51;39.88;29.56;52.81;;
67310;Laerm;65444;51.438;5.982;2023-06-10T01:00:01;46.75;31.68;55.03;;
67310;Laerm;65444;51.438;5.982;2023-06-10T01:00:12;47.04;34.82;55.14;;
67310;Laerm;65444;51.438;5.982;2023-06-10T01:00:22;45.29;29.36;54.18;;
67310;Laerm;65444;51.438;5.982;2023-06-10T01:00:32;44.07;30.05;51.69;;
67310;Laerm;65444;51.438;5.982;2023-06-10T01:00:43;44.13;32.11;53.67;;
67310;Laerm;65444;51.438;5.982;2023-06-10T01:00:55;41.90;29.95;51.96;;
67310;Laerm;65444;51.438;5.982;2023-06-10T01:01:05;45.29;31.08;53.26;;